createdAt,value
2022-12-04T00:01:41.754Z,97.10
2022-12-04T00:04:10.651Z,97.08
2022-12-04T00:06:38.155Z,97.78
2022-12-04T00:09:05.833Z,96.66
2022-12-04T00:11:34.053Z,96.07
2022-12-04T00:14:07.014Z,96.50
2022-12-04T00:16:35.679Z,96.01
2022-12-04T00:19:03.641Z,96.35
2022-12-04T00:21:32.864Z,96.67
2022-12-04T00:24:00.278Z,96.85
2022-12-04T00:26:31.218Z,96.62
2022-12-04T00:28:59.247Z,96.48
2022-12-04T00:31:28.893Z,96.94
2022-12-04T00:33:56.405Z,97.23
2022-12-04T00:36:26.931Z,97.11
2022-12-04T00:38:55.945Z,97.07
2022-12-04T00:41:25.204Z,97.92
2022-12-04T00:43:53.189Z,97.17
2022-12-04T00:46:21.029Z,96.89
2022-12-04T00:48:48.833Z,96.71
2022-12-04T00:51:17.811Z,97.09
2022-12-04T00:53:45.704Z,97.06
2022-12-04T00:56:18.697Z,97.31
2022-12-04T00:58:47.003Z,96.21
2022-12-04T01:01:16.363Z,96.23
2022-12-04T01:03:44.294Z,95.09
2022-12-04T01:06:18.444Z,96.41
2022-12-04T01:08:45.863Z,96.52
2022-12-04T01:11:14.631Z,97.19
2022-12-04T01:13:42.149Z,96.75
2022-12-04T01:16:09.731Z,96.62
2022-12-04T01:18:37.159Z,96.98
2022-12-04T01:21:04.671Z,95.62
2022-12-04T01:23:32.129Z,96.40
2022-12-04T01:25:59.799Z,96.15
2022-12-04T01:28:28.532Z,96.65
2022-12-04T01:31:00.972Z,96.62
2022-12-04T01:33:28.528Z,97.46
2022-12-04T01:35:56.841Z,97.39
2022-12-04T01:38:26.902Z,97.27
2022-12-04T01:40:54.831Z,96.97
2022-12-04T01:43:22.646Z,95.38
2022-12-04T01:45:53.137Z,95.20
2022-12-04T01:48:25.064Z,95.31
2022-12-04T01:50:56.863Z,95.27
2022-12-04T01:53:24.322Z,94.99
2022-12-04T01:55:51.871Z,93.89
2022-12-04T01:58:24.879Z,94.44
2022-12-04T02:00:58.505Z,94.91
2022-12-04T02:03:26.584Z,95.43
2022-12-04T02:05:53.999Z,94.34
2022-12-04T02:08:21.456Z,94.58
2022-12-04T02:10:53.014Z,94.95
2022-12-04T02:13:25.939Z,94.94
2022-12-04T02:15:58.879Z,95.01
2022-12-04T02:18:31.270Z,96.13
2022-12-04T02:21:01.592Z,96.34
2022-12-04T02:24:01.952Z,95.43
2022-12-04T02:26:38.511Z,94.77
2022-12-04T02:29:11.695Z,94.94
2022-12-04T02:31:44.016Z,95.93
2022-12-04T02:34:16.702Z,95.38
2022-12-04T02:36:52.123Z,95.72
2022-12-04T02:39:23.356Z,95.80
2022-12-04T02:41:56.779Z,96.14
2022-12-04T02:44:27.835Z,96.83
2022-12-04T02:46:58.697Z,97.18
2022-12-04T02:49:30.035Z,96.76
2022-12-04T02:51:58.581Z,96.81
2022-12-04T02:54:29.664Z,96.20
2022-12-04T02:57:01.532Z,97.10
2022-12-04T02:59:36.655Z,96.79
2022-12-04T03:02:09.546Z,96.33
2022-12-04T03:04:40.000Z,96.06
2022-12-04T03:07:13.386Z,96.90
2022-12-04T03:09:44.110Z,96.26
2022-12-04T03:12:16.107Z,96.70
2022-12-04T03:14:48.880Z,97.34
2022-12-04T03:17:18.291Z,97.83
2022-12-04T03:19:48.740Z,97.88
2022-12-04T03:22:19.555Z,97.98
2022-12-04T03:24:49.668Z,98.22
2022-12-04T03:27:22.856Z,97.60
2022-12-04T03:29:54.962Z,97.54
2022-12-04T03:32:27.262Z,97.35
2022-12-04T03:34:58.942Z,98.05
2022-12-04T03:37:32.844Z,97.10
2022-12-04T03:40:04.945Z,97.47
2022-12-04T03:42:36.923Z,98.90
2022-12-04T03:45:10.609Z,98.28
2022-12-04T03:47:43.076Z,98.08
2022-12-04T03:50:14.781Z,97.77
2022-12-04T03:52:49.324Z,97.77
2022-12-04T03:55:22.474Z,97.89
2022-12-04T03:57:50.711Z,97.80
2022-12-04T04:00:22.151Z,98.08
2022-12-04T04:02:55.780Z,98.65
2022-12-04T04:05:23.879Z,98.77
2022-12-04T04:07:53.753Z,98.92
2022-12-04T04:10:28.479Z,98.27
2022-12-04T04:13:19.046Z,98.82
2022-12-04T04:16:08.175Z,99.30
2022-12-04T04:18:53.771Z,99.93
2022-12-04T04:21:42.116Z,99.72
2022-12-04T04:24:31.782Z,98.92
2022-12-04T04:27:01.770Z,98.48
2022-12-04T04:29:31.984Z,99.11
2022-12-04T04:32:04.803Z,99.63
2022-12-04T04:34:40.172Z,100.00
2022-12-04T04:37:12.220Z,99.58
2022-12-04T04:39:43.670Z,99.43
2022-12-04T04:42:16.131Z,99.98
2022-12-04T04:44:47.446Z,99.75
2022-12-04T04:47:19.889Z,100.00
2022-12-04T04:49:48.415Z,100.00
2022-12-04T04:52:16.239Z,99.99
2022-12-04T04:54:44.300Z,99.50
2022-12-04T04:57:11.740Z,98.97
2022-12-04T04:59:39.136Z,99.41
2022-12-04T05:02:06.698Z,99.05
2022-12-04T05:04:35.547Z,99.50
2022-12-04T05:07:02.995Z,99.09
2022-12-04T05:09:30.379Z,100.00
2022-12-04T05:11:57.806Z,99.17
2022-12-04T05:14:25.228Z,99.51
2022-12-04T05:16:52.696Z,100.00
2022-12-04T05:19:37.416Z,100.00
2022-12-04T05:22:06.209Z,100.00
2022-12-04T05:24:33.632Z,100.00
2022-12-04T05:27:01.101Z,100.00
2022-12-04T05:29:31.619Z,99.40
2022-12-04T05:32:03.028Z,98.77
2022-12-04T05:34:31.349Z,98.88
2022-12-04T05:36:58.763Z,99.84
2022-12-04T05:39:28.487Z,98.63
2022-12-04T05:41:55.904Z,99.06
2022-12-04T05:44:23.346Z,98.93
2022-12-04T05:46:50.838Z,99.05
2022-12-04T05:49:18.309Z,98.59
2022-12-04T05:51:45.714Z,98.69
2022-12-04T05:54:13.166Z,98.20
2022-12-04T05:56:42.067Z,98.36
2022-12-04T05:59:09.564Z,99.11
2022-12-04T06:01:37.036Z,98.51
2022-12-04T06:04:04.679Z,98.28
2022-12-04T06:06:32.094Z,97.67
2022-12-04T06:09:00.679Z,97.99
2022-12-04T06:11:29.814Z,98.64
2022-12-04T06:13:59.765Z,98.76
2022-12-04T06:16:29.083Z,97.98
2022-12-04T06:18:58.272Z,98.74
2022-12-04T06:21:26.856Z,97.83
2022-12-04T06:23:54.807Z,97.30
2022-12-04T06:26:23.275Z,96.94
2022-12-04T06:28:50.684Z,97.64
2022-12-04T06:31:19.808Z,97.78
2022-12-04T06:33:47.418Z,97.71
2022-12-04T06:36:16.454Z,97.34
2022-12-04T06:38:44.318Z,97.46
2022-12-04T06:41:13.513Z,97.04
2022-12-04T06:43:41.217Z,97.34
2022-12-04T06:46:11.188Z,96.16
2022-12-04T06:48:40.267Z,95.64
2022-12-04T06:51:09.724Z,94.65
2022-12-04T06:53:37.663Z,95.25
2022-12-04T06:56:07.503Z,94.87
2022-12-04T06:58:35.119Z,95.22
2022-12-04T07:01:07.355Z,95.47
2022-12-04T07:03:35.375Z,94.89
2022-12-04T07:06:13.096Z,94.97
2022-12-04T07:08:40.630Z,94.65
2022-12-04T07:11:08.312Z,95.33
2022-12-04T07:13:35.788Z,95.09
2022-12-04T07:16:04.163Z,94.75
2022-12-04T07:18:32.376Z,95.16
2022-12-04T07:21:00.046Z,95.34
2022-12-04T07:23:28.768Z,95.38
2022-12-04T07:25:56.196Z,94.60
2022-12-04T07:28:23.610Z,95.00
2022-12-04T07:30:51.062Z,95.84
2022-12-04T07:33:18.510Z,96.24
2022-12-04T07:35:45.947Z,96.28
2022-12-04T07:38:13.339Z,96.14
2022-12-04T07:40:42.079Z,95.57
2022-12-04T07:43:09.517Z,97.13
2022-12-04T07:45:37.866Z,95.83
2022-12-04T07:48:06.001Z,96.36
2022-12-04T07:50:33.423Z,96.02
2022-12-04T07:53:00.824Z,96.29
2022-12-04T07:55:28.252Z,96.04
2022-12-04T07:57:56.995Z,95.43
2022-12-04T08:00:24.744Z,96.51
2022-12-04T08:02:52.217Z,96.89
2022-12-04T08:05:19.829Z,96.86
2022-12-04T08:07:47.289Z,96.46
2022-12-04T08:10:15.206Z,97.32
2022-12-04T08:12:42.755Z,97.82
2022-12-04T08:15:12.218Z,98.37
2022-12-04T08:17:41.329Z,97.94
2022-12-04T08:20:09.667Z,98.93
2022-12-04T08:22:37.122Z,97.41
2022-12-04T08:25:04.832Z,97.59
2022-12-04T08:27:32.240Z,97.89
2022-12-04T08:29:59.719Z,96.35
2022-12-04T08:32:28.464Z,97.01
2022-12-04T08:34:56.215Z,96.98
2022-12-04T08:37:23.687Z,98.08
2022-12-04T08:39:51.084Z,97.38
2022-12-04T08:42:18.499Z,98.18
2022-12-04T08:44:46.622Z,97.20
2022-12-04T08:47:15.151Z,98.31
2022-12-04T08:49:43.875Z,97.21
2022-12-04T08:52:11.516Z,97.59
2022-12-04T08:54:38.947Z,98.00
2022-12-04T08:57:06.387Z,97.22
2022-12-04T08:59:33.870Z,98.42
2022-12-04T09:02:02.394Z,98.46
2022-12-04T09:04:30.155Z,98.77
2022-12-04T09:06:58.930Z,98.13
2022-12-04T09:09:26.386Z,98.95
2022-12-04T09:11:53.835Z,98.34
2022-12-04T09:14:25.762Z,98.29
2022-12-04T09:16:53.634Z,98.26
2022-12-04T09:19:21.397Z,98.49
2022-12-04T09:21:48.823Z,99.48
2022-12-04T09:24:17.901Z,99.66
2022-12-04T09:26:45.323Z,99.34
2022-12-04T09:29:13.008Z,100.00
2022-12-04T09:31:40.495Z,99.11
2022-12-04T09:34:07.941Z,99.17
2022-12-04T09:36:35.358Z,99.03
2022-12-04T09:39:02.996Z,99.19
2022-12-04T09:42:05.666Z,98.91
2022-12-04T09:44:37.183Z,98.01
2022-12-04T09:47:08.637Z,98.89
2022-12-04T09:49:39.607Z,99.10
2022-12-04T09:52:10.500Z,99.79
2022-12-04T09:54:41.305Z,98.23
2022-12-04T09:57:16.776Z,99.20
2022-12-04T09:59:45.898Z,98.72
2022-12-04T10:02:28.715Z,99.17
2022-12-04T10:04:56.752Z,100.00
2022-12-04T10:07:27.820Z,99.01
2022-12-04T10:09:58.973Z,99.45
2022-12-04T10:12:30.795Z,98.62
2022-12-04T10:15:06.990Z,98.70
2022-12-04T10:17:56.600Z,99.15
2022-12-04T10:20:37.535Z,98.83
2022-12-04T10:23:13.525Z,98.75
2022-12-04T10:25:41.824Z,98.76
2022-12-04T10:28:16.124Z,99.41
2022-12-04T10:34:06.399Z,99.49
2022-12-04T10:36:35.936Z,99.46
2022-12-04T10:39:06.528Z,99.32
2022-12-04T10:41:39.826Z,99.33
2022-12-04T10:44:07.282Z,98.67
2022-12-04T10:46:35.836Z,99.88
2022-12-04T10:49:08.954Z,99.92
2022-12-04T10:58:18.714Z,99.00
2022-12-04T11:00:47.464Z,100.00
2022-12-04T11:03:26.052Z,100.00
2022-12-04T11:05:57.742Z,100.00
2022-12-04T11:08:28.743Z,100.00
2022-12-04T11:10:58.576Z,99.89
2022-12-04T11:13:26.123Z,100.00
2022-12-04T11:15:55.592Z,100.00
2022-12-04T11:18:25.469Z,100.00
2022-12-04T11:20:56.680Z,99.86
2022-12-04T11:23:24.644Z,100.00
2022-12-04T11:25:53.603Z,99.67
2022-12-04T11:28:40.150Z,100.00
2022-12-04T11:31:10.637Z,100.00
2022-12-04T11:33:41.523Z,100.00
2022-12-04T11:36:20.356Z,100.00
2022-12-04T11:38:48.019Z,99.92
2022-12-04T11:41:26.778Z,100.00
2022-12-04T11:43:59.593Z,98.94
2022-12-04T11:46:29.605Z,99.58
2022-12-04T11:48:57.097Z,98.84
2022-12-04T11:51:35.724Z,99.65
2022-12-04T11:54:09.060Z,98.67
2022-12-04T11:56:39.240Z,99.37
2022-12-04T11:59:29.213Z,98.58
2022-12-04T12:02:00.788Z,98.74
2022-12-04T12:04:55.906Z,98.86
2022-12-04T12:07:34.377Z,99.35
2022-12-04T12:10:05.850Z,99.17
2022-12-04T12:12:40.772Z,99.67
2022-12-04T12:15:16.256Z,99.24
2022-12-04T12:17:47.572Z,99.70
2022-12-04T12:20:18.210Z,98.86
2022-12-04T12:23:09.390Z,99.75
2022-12-04T12:25:46.133Z,100.00
2022-12-04T12:28:30.365Z,99.58
2022-12-04T12:31:21.356Z,100.00
2022-12-04T12:33:53.975Z,100.00
2022-12-04T12:36:23.035Z,100.00
2022-12-04T12:38:54.759Z,100.00
2022-12-04T12:41:24.917Z,99.65
2022-12-04T12:43:59.850Z,100.00
2022-12-04T12:46:31.007Z,98.80
2022-12-04T12:49:02.335Z,98.77
2022-12-04T12:51:35.087Z,100.00
2022-12-04T12:54:12.520Z,99.92
2022-12-04T12:56:47.821Z,100.00
2022-12-04T12:59:20.900Z,99.09
2022-12-04T13:01:55.949Z,99.27
2022-12-04T13:04:31.391Z,100.00
2022-12-04T13:07:05.958Z,100.00
2022-12-04T13:09:37.811Z,100.00
2022-12-04T13:12:10.476Z,100.00
2022-12-04T13:14:38.091Z,99.96
2022-12-04T13:17:09.526Z,99.37
2022-12-04T13:19:43.407Z,98.69
2022-12-04T13:22:17.734Z,99.09
2022-12-04T13:25:07.275Z,98.54
2022-12-04T13:27:42.679Z,98.42
2022-12-04T13:30:15.338Z,97.92
2022-12-04T13:33:10.596Z,97.49
2022-12-04T13:35:50.872Z,98.05
2022-12-04T13:38:25.800Z,98.33
2022-12-04T13:40:55.461Z,98.60
2022-12-04T13:43:31.264Z,97.25
2022-12-04T13:46:00.350Z,96.95
2022-12-04T13:48:35.111Z,98.47
2022-12-04T13:51:05.608Z,97.88
2022-12-04T13:53:37.126Z,97.42
2022-12-04T13:56:09.567Z,98.10
2022-12-04T13:58:38.931Z,98.09
2022-12-04T14:01:13.004Z,99.20
2022-12-04T14:03:47.634Z,99.86
2022-12-04T14:06:24.089Z,99.66
2022-12-04T14:08:56.674Z,100.00
2022-12-04T14:11:25.614Z,100.00
2022-12-04T14:13:54.923Z,99.87
2022-12-04T14:16:25.510Z,99.64
2022-12-04T14:18:54.903Z,99.47
2022-12-04T14:21:22.510Z,99.44
2022-12-04T14:23:50.827Z,99.13
2022-12-04T14:26:37.268Z,99.94
2022-12-04T14:29:56.199Z,100.00
2022-12-04T14:32:27.079Z,100.00
2022-12-04T14:34:55.554Z,99.77
2022-12-04T14:37:28.036Z,100.00
2022-12-04T14:39:56.594Z,99.49
2022-12-04T14:42:27.522Z,99.43
2022-12-04T14:44:57.339Z,98.42
2022-12-04T14:47:39.867Z,98.41
2022-12-04T14:50:16.875Z,99.47
2022-12-04T14:52:46.684Z,99.47
2022-12-04T14:55:19.164Z,99.62
2022-12-04T14:57:52.745Z,99.43
2022-12-04T15:00:23.198Z,100.00
2022-12-04T15:02:53.323Z,98.04
2022-12-04T15:05:23.987Z,98.58
2022-12-04T15:07:54.612Z,99.17
2022-12-04T15:10:41.526Z,99.59
2022-12-04T15:13:10.907Z,99.36
2022-12-04T15:15:39.681Z,99.13
2022-12-04T15:18:13.838Z,99.71
2022-12-04T15:20:44.241Z,99.35
2022-12-04T15:23:14.668Z,98.99
2022-12-04T15:25:45.656Z,98.54
2022-12-04T15:28:18.458Z,98.74
2022-12-04T15:30:46.496Z,99.56
2022-12-04T15:33:21.457Z,99.42
2022-12-04T15:35:51.824Z,99.89
2022-12-04T15:38:19.887Z,100.00
2022-12-04T15:40:52.575Z,99.94
2022-12-04T15:43:29.646Z,100.00
2022-12-04T15:45:57.777Z,100.00
2022-12-04T15:48:29.965Z,100.00
2022-12-04T15:51:02.617Z,100.00
2022-12-04T15:53:32.835Z,98.80
2022-12-04T15:56:03.127Z,100.00
2022-12-04T15:58:33.480Z,99.80
2022-12-04T16:01:02.731Z,100.00
2022-12-04T16:03:32.108Z,100.00
2022-12-04T16:06:08.435Z,100.00
2022-12-04T16:08:37.463Z,100.00
2022-12-04T16:11:06.968Z,100.00
2022-12-04T16:13:38.090Z,100.00
2022-12-04T16:16:07.589Z,100.00
2022-12-04T16:18:36.081Z,100.00
2022-12-04T16:21:03.631Z,100.00
2022-12-04T16:23:33.084Z,100.00
2022-12-04T16:26:00.573Z,100.00
2022-12-04T16:28:28.029Z,100.00
2022-12-04T16:30:56.906Z,100.00
2022-12-04T16:33:24.395Z,100.00
2022-12-04T16:35:51.837Z,100.00
2022-12-04T16:38:20.288Z,100.00
2022-12-04T16:40:48.940Z,100.00
2022-12-04T16:43:18.095Z,100.00
2022-12-04T16:45:47.475Z,100.00
2022-12-04T16:48:16.531Z,100.00
2022-12-04T16:50:44.092Z,100.00
2022-12-04T16:53:14.632Z,100.00
2022-12-04T16:55:45.166Z,100.00
2022-12-04T16:58:12.678Z,100.00
2022-12-04T17:00:43.348Z,100.00
2022-12-04T17:03:13.008Z,100.00
2022-12-04T17:05:41.777Z,100.00
2022-12-04T17:08:09.357Z,100.00
2022-12-04T17:10:36.792Z,100.00
2022-12-04T17:13:04.558Z,100.00
2022-12-04T17:15:32.012Z,100.00
2022-12-04T17:17:59.571Z,100.00
2022-12-04T17:20:27.044Z,100.00
2022-12-04T17:22:55.923Z,100.00
2022-12-04T17:25:24.864Z,100.00
2022-12-04T17:27:53.015Z,100.00
2022-12-04T17:30:20.695Z,100.00
2022-12-04T17:32:49.093Z,100.00
2022-12-04T17:35:16.752Z,100.00
2022-12-04T17:37:44.315Z,100.00
2022-12-04T17:40:14.246Z,100.00
2022-12-04T17:42:42.349Z,100.00
2022-12-04T17:45:11.454Z,100.00
2022-12-04T17:47:43.774Z,100.00
2022-12-04T17:50:11.752Z,100.00
2022-12-04T17:52:39.216Z,100.00
2022-12-04T17:55:09.077Z,100.00
2022-12-04T17:57:37.909Z,100.00
2022-12-04T18:00:06.787Z,100.00
2022-12-04T18:02:41.349Z,100.00
2022-12-04T18:05:11.634Z,100.00
2022-12-04T18:07:39.284Z,100.00
2022-12-04T18:10:08.232Z,100.00
2022-12-04T18:12:35.766Z,100.00
2022-12-04T18:15:05.291Z,100.00
2022-12-04T18:17:32.869Z,100.00
2022-12-04T18:20:04.971Z,100.00
2022-12-04T18:22:33.012Z,100.00
2022-12-04T18:25:00.511Z,100.00
2022-12-04T18:27:27.939Z,100.00
2022-12-04T18:29:55.702Z,100.00
2022-12-04T18:32:26.825Z,100.00
2022-12-04T18:34:54.431Z,99.61
2022-12-04T18:37:21.847Z,99.77
2022-12-04T20:43:31.782Z,98.68
2022-12-04T20:46:02.418Z,98.36
2022-12-04T20:48:30.029Z,98.30
2022-12-04T20:50:57.472Z,99.19
2022-12-04T20:53:24.930Z,98.90
2022-12-04T21:02:13.824Z,99.81
2022-12-04T21:04:41.681Z,99.95
2022-12-04T21:07:37.041Z,100.00
2022-12-04T21:13:46.748Z,100.00
2022-12-04T21:16:14.278Z,99.81
2022-12-04T21:18:45.677Z,100.00
2022-12-04T21:21:13.155Z,100.00
2022-12-04T21:23:40.793Z,100.00
2022-12-04T21:26:08.374Z,100.00
2022-12-04T21:28:35.834Z,99.07
2022-12-04T21:31:04.486Z,99.60
2022-12-04T21:33:32.956Z,100.00
2022-12-04T21:36:04.037Z,99.60
2022-12-04T21:38:33.625Z,100.00
2022-12-04T21:41:01.202Z,99.08
2022-12-04T21:43:29.323Z,100.00
2022-12-04T21:45:58.110Z,99.10
2022-12-04T21:48:25.667Z,98.73
2022-12-04T21:50:53.129Z,99.59
2022-12-04T21:53:22.273Z,99.58
2022-12-04T21:55:51.180Z,99.76
2022-12-04T21:58:18.911Z,98.50
2022-12-04T22:00:46.541Z,99.66
2022-12-04T22:03:14.493Z,98.68
2022-12-04T22:05:42.160Z,98.60
2022-12-04T22:08:11.009Z,98.51
2022-12-04T22:10:42.871Z,98.81
2022-12-04T22:13:10.539Z,99.13
2022-12-04T22:15:39.033Z,98.79
2022-12-04T22:18:06.738Z,99.33
2022-12-04T22:20:34.393Z,98.38
2022-12-04T22:23:03.047Z,98.49
2022-12-04T22:25:31.050Z,98.97
2022-12-04T22:28:00.180Z,97.71
2022-12-04T22:30:28.287Z,98.89
2022-12-04T22:32:55.726Z,99.59
2022-12-04T22:35:23.210Z,99.49
2022-12-04T22:37:50.682Z,100.00
2022-12-04T22:40:18.351Z,100.00
2022-12-04T22:42:46.050Z,99.33
2022-12-04T22:45:15.096Z,99.55
2022-12-04T22:47:42.714Z,99.75
2022-12-04T22:50:10.572Z,99.85
2022-12-04T22:52:37.997Z,99.08
2022-12-04T22:55:06.251Z,99.93
2022-12-04T22:57:35.099Z,98.94
2022-12-04T23:00:03.956Z,99.07
2022-12-04T23:02:33.477Z,99.00
2022-12-04T23:05:00.968Z,100.00
2022-12-04T23:07:28.472Z,99.80
2022-12-04T23:09:56.451Z,98.57
2022-12-04T23:12:25.240Z,99.69
2022-12-04T23:14:52.709Z,99.56
2022-12-04T23:17:20.448Z,99.71
2022-12-04T23:19:49.200Z,99.45
2022-12-04T23:22:16.613Z,100.00
2022-12-04T23:24:44.091Z,99.06
2022-12-04T23:27:11.540Z,98.95
2022-12-04T23:29:54.454Z,98.80
2022-12-04T23:32:21.923Z,98.44
2022-12-04T23:34:52.823Z,98.34
2022-12-04T23:37:20.323Z,98.32
2022-12-04T23:39:47.744Z,98.58
2022-12-04T23:42:15.150Z,98.54
2022-12-04T23:44:42.749Z,97.99
2022-12-04T23:47:10.211Z,97.89
2022-12-04T23:49:37.676Z,98.23
2022-12-04T23:52:06.502Z,97.02
2022-12-04T23:54:35.822Z,98.53
2022-12-04T23:57:03.273Z,97.67
2022-12-04T23:59:30.728Z,97.64
